Time;durP1;ratioP1;P1;durP2;ratioP2;P2;SDS_P1;SDS_P2;PMS_P1;PMS_P2;Temp;Humidity;BMP_temperature;BMP_pressure;BME280_temperature;BME280_humidity;BME280_pressure;Samples;Min_cycle;Max_cycle;Signal;HPM_P1;HPM_P2
2021/01/23 00:00:11;;;;;;;110.28;57.05;;;;;;;3.47;80.10;96417.67;1760096;81;21197;-74
2021/01/23 00:02:39;;;;;;;;;;;;;;;3.47;79.90;96420.34;1762574;81;21284;-75
2021/01/23 00:05:07;;;;;;;83.85;43.80;;;;;;;3.44;79.91;96421.44;1759996;81;21215;-75
2021/01/23 00:07:33;;;;;;;86.42;43.87;;;;;;;3.39;81.49;96412.88;1759816;81;21126;-74
2021/01/23 00:10:00;;;;;;;83.30;44.13;;;;;;;3.42;80.12;96423.06;1759992;81;21086;-74
2021/01/23 00:12:26;;;;;;;176.32;79.90;;;;;;;3.33;79.74;96414.78;1759959;81;21503;-74
2021/01/23 00:14:52;;;;;;;118.77;59.85;;;;;;;3.30;82.75;96405.94;1760059;81;21411;-74
2021/01/23 00:17:18;;;;;;;126.50;60.65;;;;;;;3.36;81.64;96404.86;1760025;81;21106;-74
2021/01/23 00:19:45;;;;;;;85.77;42.55;;;;;;;3.40;81.48;96416.61;1759954;81;21039;-74
2021/01/23 00:22:11;;;;;;;82.78;42.38;;;;;;;3.49;81.33;96406.67;1759972;81;21575;-74
2021/01/23 00:24:37;;;;;;;79.97;43.28;;;;;;;3.51;80.91;96412.05;1759905;81;21527;-74
2021/01/23 00:27:04;;;;;;;81.17;40.85;;;;;;;3.56;80.81;96415.23;1759955;81;21194;-74
2021/01/23 00:29:30;;;;;;;91.60;47.95;;;;;;;3.59;81.21;96403.95;1759930;81;22069;-74
2021/01/23 00:31:57;;;;;;;83.60;47.80;;;;;;;3.46;80.89;96413.93;1759921;81;21189;-74
2021/01/23 00:34:23;;;;;;;81.65;40.55;;;;;;;3.45;80.94;96408.31;1759890;81;21038;-74
2021/01/23 00:36:50;;;;;;;86.50;43.90;;;;;;;3.43;80.82;96411.27;1759988;81;21165;-74
2021/01/23 00:39:16;;;;;;;78.42;39.18;;;;;;;3.36;80.84;96416.11;1759941;81;21110;-74
2021/01/23 00:41:42;;;;;;;74.25;40.80;;;;;;;3.38;81.09;96414.75;1760063;81;21546;-74
2021/01/23 00:44:09;;;;;;;67.70;34.15;;;;;;;3.25;82.69;96404.63;1759861;81;21105;-74
2021/01/23 00:46:35;;;;;;;68.80;34.58;;;;;;;3.26;81.34;96413.46;1760044;81;21150;-74
2021/01/23 00:49:01;;;;;;;49.60;25.82;;;;;;;3.25;81.25;96413.20;1759890;81;21105;-74
2021/01/23 00:51:27;;;;;;;37.88;21.62;;;;;;;3.26;81.62;96401.41;1760113;81;21553;-74
2021/01/23 00:53:53;;;;;;;41.23;22.00;;;;;;;3.23;81.04;96409.97;1759883;81;21158;-74
2021/01/23 00:56:19;;;;;;;36.63;19.45;;;;;;;3.28;81.47;96396.58;1760023;81;21138;-74
2021/01/23 00:58:45;;;;;;;33.65;17.02;;;;;;;3.24;81.17;96392.83;1759898;81;21054;-74
2021/01/23 01:01:12;;;;;;;38.25;20.23;;;;;;;3.32;81.90;96398.97;1759961;81;21161;-74
2021/01/23 01:03:38;;;;;;;42.08;23.35;;;;;;;3.29;81.44;96396.84;1760030;81;21499;-74
2021/01/23 01:06:05;;;;;;;47.95;28.65;;;;;;;3.28;81.30;96388.02;1759921;81;21225;-74
2021/01/23 01:08:31;;;;;;;47.73;30.35;;;;;;;3.26;81.40;96389.37;1759805;81;21056;-74
2021/01/23 01:10:57;;;;;;;31.07;18.02;;;;;;;3.22;81.05;96389.09;1759965;81;21118;-74
2021/01/23 01:13:23;;;;;;;57.50;33.80;;;;;;;3.03;81.56;96390.75;1743501;81;21127;-74
2021/01/23 01:15:50;;;;;;;55.78;30.52;;;;;;;2.91;81.39;96392.39;1743439;82;21554;-74
2021/01/23 01:18:16;;;;;;;49.23;27.98;;;;;;;2.86;81.71;96388.91;1743362;82;21210;-74
2021/01/23 01:20:42;;;;;;;53.42;29.60;;;;;;;2.86;81.29;96383.02;1743428;82;21177;-74
2021/01/23 01:23:09;;;;;;;61.68;29.92;;;;;;;2.85;81.34;96380.62;1743354;82;21472;-74
2021/01/23 01:25:35;;;;;;;49.35;29.32;;;;;;;2.82;81.33;96375.28;1743409;82;21173;-74
2021/01/23 01:28:01;;;;;;;45.75;26.87;;;;;;;2.78;81.61;96373.66;1743469;82;21051;-74
2021/01/23 01:30:28;;;;;;;45.38;23.05;;;;;;;2.70;81.34;96374.20;1743580;82;21968;-74
2021/01/23 01:32:54;;;;;;;38.65;20.72;;;;;;;2.67;82.16;96373.41;1743407;82;21205;-74
2021/01/23 01:35:20;;;;;;;36.30;21.07;;;;;;;2.58;81.59;96372.89;1743555;82;21146;-74
2021/01/23 01:37:46;;;;;;;36.55;19.57;;;;;;;2.58;81.71;96372.36;1743522;82;21161;-74
2021/01/23 01:40:13;;;;;;;42.48;22.58;;;;;;;2.58;81.79;96369.68;1743550;82;21170;-74
2021/01/23 01:42:39;;;;;;;44.67;24.27;;;;;;;2.47;82.04;96373.41;1743609;82;22101;-74
2021/01/23 01:45:06;;;;;;;44.98;26.05;;;;;;;2.38;81.78;96379.02;1743467;82;21079;-74
2021/01/23 01:47:33;;;;;;;43.65;26.93;;;;;;;2.40;82.11;96375.57;1743579;82;21516;-74
2021/01/23 01:49:59;;;;;;;46.18;28.73;;;;;;;2.36;82.20;96372.61;1743511;82;21518;-74
2021/01/23 01:52:26;;;;;;;31.40;20.40;;;;;;;2.38;82.21;96371.80;1743531;82;21161;-74
2021/01/23 01:54:52;;;;;;;22.13;13.08;;;;;;;2.44;82.76;96365.39;1743440;82;21200;-74
2021/01/23 01:57:21;;;;;;;24.50;12.18;;;;;;;2.64;83.75;96365.91;1743486;82;21141;-74
2021/01/23 01:59:48;;;;;;;17.60;11.00;;;;;;;2.96;83.51;96353.56;1743205;82;21529;-75
2021/01/23 02:02:47;;;;;;;32.25;14.10;;;;;;;3.18;83.33;96363.16;1743599;82;21483;-75
2021/01/23 02:05:30;;;;;;;17.55;9.55;;;;;;;3.31;83.01;96356.67;1743345;82;21039;-75
2021/01/23 02:08:30;;;;;;;30.65;14.18;;;;;;;3.32;83.59;96356.92;1743443;82;21256;-74
2021/01/23 02:11:11;;;;;;;18.77;8.63;;;;;;;3.27;82.49;96354.28;1743551;82;21133;-74
2021/01/23 02:13:47;;;;;;;16.05;8.83;;;;;;;3.32;82.78;96360.14;1742989;81;21519;-76
2021/01/23 02:16:24;;;;;;;13.20;7.92;;;;;;;3.43;83.27;96356.91;1743170;82;21169;-75
2021/01/23 02:19:01;;;;;;;11.75;7.22;;;;;;;3.54;82.75;96351.77;1743265;82;21531;-74
2021/01/23 02:21:55;;;;;;;14.45;6.58;;;;;;;3.65;82.63;96353.31;1743583;82;21217;-75
2021/01/23 02:24:24;;;;;;;15.80;7.20;;;;;;;3.66;82.38;96353.03;1743398;82;21141;-75
2021/01/23 02:27:47;;;;;;;15.60;12.73;;;;;;;3.61;82.22;96346.38;1743634;82;21105;-74
2021/01/23 02:30:19;;;;;;;20.95;9.93;;;;;;;3.80;83.59;96342.52;1743433;82;21073;-74
2021/01/23 02:32:49;;;;;;;20.05;9.80;;;;;;;4.25;83.60;96346.77;1743574;82;21516;-75
2021/01/23 02:35:16;;;;;;;14.13;4.83;;;;;;;4.69;83.39;96334.34;1743573;82;21210;-75
2021/01/23 02:37:42;;;;;;;18.73;10.43;;;;;;;4.86;82.64;96325.32;1743386;82;21102;-75
2021/01/23 02:40:09;;;;;;;13.48;6.50;;;;;;;4.85;82.36;96325.61;1743491;82;21145;-75
2021/01/23 02:42:35;;;;;;;11.25;6.08;;;;;;;4.91;82.34;96315.89;1743445;82;21105;-75
2021/01/23 02:45:03;;;;;;;15.72;6.58;;;;;;;4.95;82.24;96318.25;1743561;82;21031;-75
2021/01/23 02:47:29;;;;;;;8.53;5.00;;;;;;;5.01;82.36;96314.98;1743461;82;21251;-75
2021/01/23 02:49:55;;;;;;;10.58;5.47;;;;;;;5.03;82.12;96304.75;1743376;82;21457;-75
2021/01/23 02:52:59;;;;;;;15.32;7.83;;;;;;;5.06;82.09;96302.30;1743556;82;21169;-75
2021/01/23 02:55:27;;;;;;;12.58;7.03;;;;;;;5.10;81.80;96309.23;1743266;82;21439;-74
2021/01/23 02:57:53;;;;;;;14.45;6.78;;;;;;;5.08;81.61;96292.62;1743446;82;21290;-74
2021/01/23 03:00:20;;;;;;;18.00;6.65;;;;;;;5.07;81.47;96290.48;1743531;82;21463;-74
2021/01/23 03:02:51;;;;;;;7.95;5.10;;;;;;;5.10;81.48;96295.27;1716014;82;21177;-74
2021/01/23 03:05:17;;;;;;;12.00;5.95;;;;;;;5.13;81.32;96293.09;1743542;82;21110;-74
2021/01/23 03:07:45;;;;;;;13.58;7.95;;;;;;;5.05;81.19;96293.20;1743465;82;21161;-74
2021/01/23 03:10:12;;;;;;;15.88;6.95;;;;;;;5.00;81.28;96287.88;1743574;82;21019;-74
2021/01/23 03:12:38;;;;;;;13.95;7.22;;;;;;;5.05;81.58;96289.97;1755086;80;21444;-74
2021/01/23 03:15:06;;;;;;;14.50;7.30;;;;;;;5.04;81.32;96290.23;1770804;81;21058;-74
2021/01/23 03:17:34;;;;;;;16.00;7.92;;;;;;;4.99;81.38;96290.31;1770832;81;21098;-74
2021/01/23 03:20:00;;;;;;;16.93;7.70;;;;;;;4.92;80.99;96277.22;1770801;81;21105;-74
2021/01/23 03:22:26;;;;;;;12.43;8.45;;;;;;;4.88;81.15;96288.28;1770900;81;21141;-74
2021/01/23 03:24:52;;;;;;;11.15;5.85;;;;;;;4.89;81.24;96277.00;1770863;80;21267;-74
2021/01/23 03:27:18;;;;;;;18.05;10.20;;;;;;;4.83;81.05;96273.56;1770763;81;21153;-74
2021/01/23 03:29:45;;;;;;;20.77;11.05;;;;;;;4.78;80.86;96278.97;1770763;80;21117;-74
2021/01/23 03:32:11;;;;;;;16.93;9.95;;;;;;;4.75;80.81;96280.35;1770850;81;21528;-74
2021/01/23 03:34:37;;;;;;;18.02;9.20;;;;;;;4.70;80.67;96279.08;1770795;80;21093;-74
2021/01/23 03:37:03;;;;;;;18.75;10.63;;;;;;;4.63;80.58;96269.77;1770932;81;21274;-74
2021/01/23 03:39:29;;;;;;;18.32;10.72;;;;;;;4.55;80.55;96264.47;1770836;81;21116;-74
2021/01/23 03:41:56;;;;;;;19.35;10.38;;;;;;;4.55;80.82;96256.42;1770915;81;21586;-74
2021/01/23 03:44:22;;;;;;;20.12;12.98;;;;;;;4.56;81.07;96249.17;1770818;80;21070;-74
2021/01/23 03:46:48;;;;;;;14.07;7.85;;;;;;;4.60;81.44;96258.23;1770887;81;21563;-74
2021/01/23 03:49:14;;;;;;;6.05;3.95;;;;;;;4.78;81.90;96258.84;1770794;80;21201;-74
2021/01/23 03:51:41;;;;;;;8.13;4.03;;;;;;;5.15;82.67;96265.43;1770757;81;21114;-74
2021/01/23 03:54:07;;;;;;;6.33;3.00;;;;;;;5.85;82.07;96262.32;1770783;80;21156;-74
2021/01/23 03:56:33;;;;;;;7.80;3.65;;;;;;;6.48;80.88;96253.78;1770918;81;21482;-74
2021/01/23 03:59:00;;;;;;;7.90;3.58;;;;;;;7.10;78.24;96250.78;1770793;80;21062;-74
2021/01/23 04:01:26;;;;;;;8.28;3.98;;;;;;;7.59;76.36;96241.11;1770973;81;21921;-74
2021/01/23 04:03:52;;;;;;;6.83;4.70;;;;;;;7.92;73.99;96245.20;1770730;80;21034;-74
2021/01/23 04:06:18;;;;;;;8.25;4.42;;;;;;;8.22;73.24;96232.66;1770852;81;21176;-74
2021/01/23 04:08:45;;;;;;;6.20;4.03;;;;;;;8.33;73.22;96242.09;1770716;80;21428;-74
2021/01/23 04:11:11;;;;;;;7.85;4.37;;;;;;;8.41;73.08;96252.97;1770847;81;21554;-74
2021/01/23 04:13:37;;;;;;;6.67;3.65;;;;;;;8.44;72.79;96244.25;1763210;81;21210;-74
2021/01/23 04:16:04;;;;;;;16.85;7.60;;;;;;;8.44;72.47;96244.80;1760018;81;21575;-75
2021/01/23 04:18:31;;;;;;;8.43;4.47;;;;;;;8.38;73.36;96246.86;1760022;81;21067;-75
2021/01/23 04:20:57;;;;;;;8.88;3.58;;;;;;;8.32;73.45;96251.30;1759918;81;21121;-74
2021/01/23 04:23:23;;;;;;;6.72;4.03;;;;;;;8.26;73.42;96239.83;1760052;81;21412;-74
2021/01/23 04:25:49;;;;;;;6.75;3.08;;;;;;;8.20;73.54;96228.91;1759902;81;21211;-74
2021/01/23 04:28:16;;;;;;;8.38;4.40;;;;;;;8.18;72.70;96223.02;1759877;81;21475;-74
2021/01/23 04:30:44;;;;;;;12.15;6.42;;;;;;;8.17;73.03;96220.87;1759910;81;21169;-74
2021/01/23 04:33:10;;;;;;;26.45;12.93;;;;;;;8.14;73.06;96216.66;1759422;81;21118;-74
2021/01/23 04:35:36;;;;;;;17.87;9.73;;;;;;;8.03;72.92;96209.38;1759986;81;21558;-75
2021/01/23 04:38:02;;;;;;;5.58;3.62;;;;;;;7.95;72.53;96224.94;1759910;81;21204;-75
2021/01/23 04:40:29;;;;;;;11.05;5.53;;;;;;;7.99;71.70;96214.33;1759910;81;21135;-75
2021/01/23 04:42:55;;;;;;;8.60;5.03;;;;;;;8.18;71.38;96219.77;1760003;81;21247;-75
2021/01/23 04:45:21;;;;;;;3.65;2.55;;;;;;;8.40;69.86;96219.00;1759938;81;21055;-74
2021/01/23 04:47:47;;;;;;;2.62;1.82;;;;;;;8.79;67.33;96212.58;1759940;81;21154;-75
2021/01/23 04:50:14;;;;;;;2.62;1.80;;;;;;;9.03;67.32;96217.05;1760051;81;22023;-75
2021/01/23 04:52:41;;;;;;;8.78;6.00;;;;;;;9.16;66.59;96218.84;1759948;81;21550;-74
2021/01/23 04:55:09;;;;;;;3.92;2.40;;;;;;;9.25;66.45;96226.42;1759883;81;21122;-74
2021/01/23 04:57:35;;;;;;;7.08;3.65;;;;;;;9.30;65.74;96218.14;1759858;81;21094;-74
2021/01/23 05:00:03;;;;;;;8.00;4.30;;;;;;;9.38;65.05;96222.54;1759952;81;21047;-74
2021/01/23 05:02:29;;;;;;;8.48;3.87;;;;;;;9.45;64.90;96216.91;1760133;81;21987;-74
2021/01/23 05:04:59;;;;;;;4.75;2.72;;;;;;;9.47;64.25;96227.41;1760073;81;21142;-74
2021/01/23 05:07:35;;;;;;;10.90;5.22;;;;;;;9.47;64.44;96223.34;1760137;81;21122;-74
2021/01/23 05:10:23;;;;;;;14.75;7.35;;;;;;;9.44;65.53;96219.94;1760194;81;21043;-73
2021/01/23 05:12:51;;;;;;;17.52;11.63;;;;;;;9.30;65.96;96221.41;1730282;82;21055;-74
2021/01/23 05:15:28;;;;;;;19.40;12.75;;;;;;;9.17;65.53;96223.69;1743542;82;21526;-74
2021/01/23 05:18:04;;;;;;;13.65;7.92;;;;;;;9.09;65.43;96219.06;1743488;82;21632;-73
2021/01/23 05:20:48;;;;;;;12.75;6.03;;;;;;;8.99;66.44;96223.64;1743578;82;21106;-74
2021/01/23 05:23:27;;;;;;;6.20;4.03;;;;;;;8.85;67.02;96219.44;1743560;82;21071;-74
2021/01/23 05:25:56;;;;;;;;;;;;;;;8.66;66.99;96219.69;1746155;82;21504;-74
2021/01/23 05:28:34;;;;;;;40.78;20.32;;;;;;;8.47;67.61;96214.52;1743598;82;21163;-74
2021/01/23 05:31:02;;;;;;;35.03;17.05;;;;;;;8.32;68.11;96212.97;1743603;82;21093;-75
2021/01/23 05:33:35;;;;;;;76.87;35.78;;;;;;;8.21;68.44;96210.28;1743627;82;21130;-74
2021/01/23 05:36:09;;;;;;;14.73;7.62;;;;;;;8.08;69.00;96215.18;1743539;82;21529;-74
2021/01/23 05:38:37;;;;;;;5.87;3.70;;;;;;;8.15;69.00;96212.30;1743541;82;21067;-74
2021/01/23 05:41:12;;;;;;;4.33;2.55;;;;;;;8.18;68.53;96201.44;1743586;82;21206;-73
2021/01/23 05:43:51;;;;;;;5.85;2.80;;;;;;;8.17;68.61;96193.10;1743476;82;21082;-73
2021/01/23 05:46:31;;;;;;;16.20;8.18;;;;;;;8.09;68.78;96183.84;1742879;81;21087;-74
2021/01/23 05:48:57;;;;;;;20.45;10.55;;;;;;;8.04;69.03;96190.73;1743567;82;21139;-74
2021/01/23 05:51:24;;;;;;;17.30;8.05;;;;;;;7.95;69.28;96187.70;1743541;82;21424;-74
2021/01/23 05:53:50;;;;;;;24.75;9.98;;;;;;;7.83;69.23;96178.83;1743582;82;21209;-74
2021/01/23 05:56:16;;;;;;;95.30;53.75;;;;;;;7.63;69.34;96184.95;1743530;82;21138;-74
2021/01/23 05:58:44;;;;;;;46.08;22.98;;;;;;;7.47;69.64;96189.64;1743502;82;21043;-74
2021/01/23 06:01:21;;;;;;;47.33;23.18;;;;;;;7.30;69.71;96189.73;1743500;82;21127;-74
2021/01/23 06:03:52;;;;;;;61.80;31.33;;;;;;;7.15;70.06;96191.95;1743787;82;21483;-73
2021/01/23 06:06:18;;;;;;;74.30;26.23;;;;;;;7.03;70.31;96200.00;1742817;82;21316;-74
2021/01/23 06:08:47;;;;;;;50.80;27.55;;;;;;;6.95;70.65;96208.78;1743400;82;21028;-74
2021/01/23 06:11:25;;;;;;;20.32;10.20;;;;;;;6.78;70.83;96208.03;1743174;82;21095;-74
2021/01/23 06:13:53;;;;;;;30.82;15.93;;;;;;;6.71;71.10;96212.22;1761287;80;21066;-75
2021/01/23 06:16:37;;;;;;;34.78;18.48;;;;;;;6.51;71.62;96216.09;1775082;80;21093;-75
2021/01/23 06:19:13;;;;;;;35.52;18.82;;;;;;;6.48;72.45;96221.50;1775008;80;21149;-74
2021/01/23 06:21:49;;;;;;;49.18;23.70;;;;;;;6.42;72.48;96202.53;1774919;80;21089;-74
2021/01/23 06:24:32;;;;;;;43.08;22.45;;;;;;;6.41;72.62;96214.39;1774987;80;21105;-74
2021/01/23 06:26:59;;;;;;;22.17;10.23;;;;;;;6.33;72.56;96196.23;1773458;80;21102;-72
2021/01/23 06:29:41;;;;;;;10.45;6.95;;;;;;;6.37;72.80;96208.53;1774910;80;21055;-72
2021/01/23 06:32:19;;;;;;;8.98;5.12;;;;;;;6.45;72.98;96217.27;1775025;80;21550;-73
2021/01/23 06:34:59;;;;;;;8.20;4.20;;;;;;;6.58;73.71;96214.33;1773678;80;21424;-73
2021/01/23 06:37:33;;;;;;;7.67;3.30;;;;;;;6.68;73.45;96216.31;1774987;80;21149;-74
2021/01/23 06:40:17;;;;;;;7.85;4.20;;;;;;;6.77;72.74;96216.41;1774983;80;21089;-73
2021/01/23 06:42:53;;;;;;;7.28;4.70;;;;;;;6.80;72.74;96218.50;1748590;80;21439;-74
2021/01/23 06:45:19;;;;;;;6.78;3.95;;;;;;;6.86;73.15;96211.13;1772954;80;21270;-74
2021/01/23 06:47:56;;;;;;;6.90;4.22;;;;;;;6.96;73.05;96206.88;1774919;80;21093;-74
2021/01/23 06:50:30;;;;;;;14.15;10.10;;;;;;;7.10;72.94;96219.01;1775060;80;21471;-73
2021/01/23 06:52:56;;;;;;;12.55;7.22;;;;;;;7.23;72.78;96207.41;1775037;80;21196;-75
2021/01/23 06:55:53;;;;;;;24.25;17.67;;;;;;;7.26;72.62;96209.48;1775052;80;21022;-75
2021/01/23 06:58:24;;;;;;;9.58;5.87;;;;;;;7.26;72.57;96211.66;1775083;80;21276;-74
2021/01/23 07:00:53;;;;;;;13.38;8.65;;;;;;;7.24;72.26;96198.22;1773391;80;21156;-74
2021/01/23 07:03:19;;;;;;;;;;;;;;;7.15;72.12;96213.50;1777649;80;21101;-74
2021/01/23 07:08:37;;;;;;;70.72;38.98;;;;;;;6.81;72.20;96199.90;1833206;76;22644;-73
2021/01/23 07:11:17;;;;;;;61.68;36.88;;;;;;;6.65;72.41;96210.70;1785916;80;21487;-73
2021/01/23 07:14:02;;;;;;;56.08;34.43;;;;;;;6.54;72.53;96197.99;1785874;79;21037;-74
2021/01/23 07:16:29;;;;;;;45.15;25.57;;;;;;;6.46;72.69;96191.95;1785818;80;21190;-74
2021/01/23 07:19:00;;;;;;;44.80;25.12;;;;;;;6.40;73.02;96186.41;1785945;79;21087;-73
2021/01/23 07:21:26;;;;;;;33.78;18.87;;;;;;;6.35;73.70;96215.56;1785319;80;20975;-74
2021/01/23 07:23:53;;;;;;;30.85;17.95;;;;;;;6.33;73.55;96212.92;1785975;79;21368;-74
2021/01/23 07:26:19;;;;;;;44.58;20.60;;;;;;;6.31;73.92;96229.88;1785841;80;21136;-74
2021/01/23 07:28:52;;;;;;;44.88;22.40;;;;;;;6.32;75.16;96218.82;1785814;79;21031;-74
2021/01/23 07:31:27;;;;;;;40.38;23.80;;;;;;;6.40;74.51;96237.52;1785218;80;20987;-73
2021/01/23 07:33:54;;;;;;;30.85;15.32;;;;;;;6.43;74.35;96232.37;1785843;79;21122;-73
2021/01/23 07:36:41;;;;;;;24.30;12.80;;;;;;;6.45;74.28;96236.10;1785873;80;21099;-73
2021/01/23 07:39:10;;;;;;;24.67;11.48;;;;;;;6.45;73.93;96234.21;1785872;79;21259;-74
2021/01/23 07:41:38;;;;;;;;;;;;;;;6.45;73.71;96236.90;1788485;79;21189;-73
2021/01/23 07:44:06;;;;;;;21.42;13.38;;;;;;;6.43;73.89;96240.98;1785929;79;20470;-73
2021/01/23 07:46:37;;;;;;;26.27;15.70;;;;;;;6.43;73.70;96239.64;1785783;79;21127;-73
2021/01/23 07:49:03;;;;;;;28.27;17.40;;;;;;;6.34;73.66;96238.73;1785900;79;21039;-74
2021/01/23 07:51:31;;;;;;;29.70;17.75;;;;;;;6.33;73.82;96241.97;1785859;80;21451;-73
2021/01/23 07:54:11;;;;;;;15.93;11.85;;;;;;;6.37;73.99;96240.27;1785751;79;21139;-74
2021/01/23 07:56:54;;;;;;;19.10;9.60;;;;;;;6.44;74.81;96232.62;1785850;80;21067;-74
2021/01/23 07:59:21;;;;;;;31.80;16.12;;;;;;;6.68;74.43;96235.15;1785911;79;21091;-74
2021/01/23 08:01:48;;;;;;;21.02;12.28;;;;;;;6.86;73.97;96231.33;1785909;80;21396;-74
2021/01/23 08:04:35;;;;;;;17.37;9.53;;;;;;;6.85;73.84;96230.53;1785794;79;21232;-74
2021/01/23 08:07:31;;;;;;;16.93;9.45;;;;;;;6.81;73.62;96226.82;1759576;79;21046;-74
2021/01/23 08:10:19;;;;;;;16.40;7.72;;;;;;;6.89;73.44;96218.05;1803197;78;21130;-74
2021/01/23 08:12:57;;;;;;;9.17;5.47;;;;;;;6.90;73.51;96222.88;1803399;78;21058;-74
2021/01/23 08:15:37;;;;;;;15.03;7.92;;;;;;;7.04;73.36;96219.09;1803241;79;20967;-73
2021/01/23 08:18:20;;;;;;;18.50;9.73;;;;;;;7.19;73.22;96213.16;1802349;78;22173;-74
2021/01/23 08:20:46;;;;;;;16.48;8.60;;;;;;;7.29;72.67;96208.34;1802594;79;21470;-74
2021/01/23 08:23:16;;;;;;;9.60;6.03;;;;;;;7.47;72.13;96217.39;1802576;78;21070;-74
2021/01/23 08:25:57;;;;;;;14.05;7.08;;;;;;;7.57;72.04;96205.58;1802644;79;21487;-73
2021/01/23 08:28:42;;;;;;;17.98;12.25;;;;;;;7.61;71.96;96217.37;1802590;78;21427;-74
2021/01/23 08:31:23;;;;;;;17.70;9.10;;;;;;;7.55;71.01;96207.23;1802725;79;21186;-74
2021/01/23 08:33:54;;;;;;;16.23;9.10;;;;;;;7.49;70.88;96196.87;1794446;78;21507;-73
2021/01/23 08:36:25;;;;;;;17.85;10.50;;;;;;;7.60;70.91;96196.33;1802704;79;21075;-74
2021/01/23 08:41:39;;;;;;;18.85;12.33;;;;;;;7.68;70.96;96185.92;1847724;76;22467;-73
2021/01/23 08:44:06;;;;;;;15.40;9.60;;;;;;;7.63;70.88;96185.50;1797585;78;21015;-73
2021/01/23 08:46:33;;;;;;;16.35;9.73;;;;;;;7.70;70.64;96172.41;1785932;80;21087;-73
2021/01/23 08:49:00;;;;;;;19.05;10.20;;;;;;;7.85;70.72;96180.66;1785820;79;21038;-73
2021/01/23 08:51:26;;;;;;;13.80;9.65;;;;;;;7.94;70.48;96181.52;1785863;80;20896;-73
2021/01/23 08:53:52;;;;;;;13.40;8.85;;;;;;;8.01;70.56;96177.84;1785852;79;21086;-73
2021/01/23 08:56:18;;;;;;;19.05;12.82;;;;;;;8.17;70.32;96180.96;1785963;80;20885;-74
2021/01/23 08:58:44;;;;;;;25.88;14.23;;;;;;;8.25;69.45;96166.72;1785871;79;22190;-74
2021/01/23 09:01:11;;;;;;;14.78;10.43;;;;;;;8.37;69.67;96153.47;1785735;80;21130;-73
2021/01/23 09:03:38;;;;;;;27.17;18.77;;;;;;;8.44;69.80;96159.23;1785842;79;21082;-73
2021/01/23 09:06:05;;;;;;;26.68;20.30;;;;;;;8.47;69.36;96158.63;1785947;80;21486;-74
2021/01/23 09:08:31;;;;;;;24.95;14.60;;;;;;;8.52;68.79;96150.13;1785972;79;21135;-74
2021/01/23 09:10:57;;;;;;;16.75;11.88;;;;;;;8.55;68.93;96161.13;1785834;80;21259;-74
2021/01/23 09:13:23;;;;;;;15.85;11.38;;;;;;;8.57;67.83;96152.70;1785892;79;21464;-74
2021/01/23 09:15:49;;;;;;;29.30;15.55;;;;;;;8.62;67.68;96162.00;1785787;80;21051;-74
2021/01/23 09:18:15;;;;;;;24.32;17.42;;;;;;;8.63;68.31;96152.27;1785823;79;21062;-74
2021/01/23 09:20:41;;;;;;;17.15;11.97;;;;;;;8.62;67.52;96144.45;1785803;79;21106;-74
2021/01/23 09:23:08;;;;;;;11.65;8.35;;;;;;;8.66;68.59;96159.73;1785928;79;21261;-74
2021/01/23 09:25:34;;;;;;;38.98;24.63;;;;;;;8.71;68.34;96157.42;1785790;80;21511;-74
2021/01/23 09:28:00;;;;;;;26.90;17.23;;;;;;;8.80;68.04;96148.00;1785910;79;21047;-74
2021/01/23 09:30:26;;;;;;;16.02;10.20;;;;;;;8.89;67.52;96156.40;1785810;80;21067;-74
2021/01/23 09:32:52;;;;;;;20.00;10.40;;;;;;;8.93;68.23;96156.00;1785941;79;21518;-74
2021/01/23 09:35:19;;;;;;;18.67;10.25;;;;;;;8.97;68.19;96156.98;1785822;80;21221;-74
2021/01/23 09:37:45;;;;;;;19.82;9.95;;;;;;;9.04;67.13;96151.88;1785768;79;21162;-74
2021/01/23 09:40:12;;;;;;;10.30;5.80;;;;;;;9.25;66.70;96154.80;1785749;78;21126;-74
2021/01/23 09:42:38;;;;;;;13.85;7.62;;;;;;;9.52;66.02;96158.31;1755676;79;21071;-74
2021/01/23 09:45:05;;;;;;;15.83;7.28;;;;;;;9.92;64.39;96147.34;1785834;80;21090;-74
2021/01/23 09:47:32;;;;;;;28.30;13.62;;;;;;;9.92;64.39;96147.34;1785947;80;22052;-74
2021/01/23 09:50:01;;;;;;;12.98;8.28;;;;;;;9.93;64.67;96145.66;1785820;80;21071;-74
2021/01/23 09:52:27;;;;;;;12.00;6.50;;;;;;;10.01;64.32;96137.30;1785636;80;21102;-74
2021/01/23 09:54:53;;;;;;;6.45;2.98;;;;;;;10.38;60.96;96134.44;1785271;79;21181;-73
2021/01/23 09:57:19;;;;;;;8.55;5.15;;;;;;;10.38;60.96;96134.44;1785375;80;21182;-73
2021/01/23 09:59:45;;;;;;;10.35;5.67;;;;;;;10.46;61.18;96129.55;1785266;79;21244;-73
2021/01/23 10:02:11;;;;;;;12.20;6.28;;;;;;;10.66;60.00;96140.22;1785220;80;21564;-73
2021/01/23 10:04:37;;;;;;;17.12;10.00;;;;;;;10.74;59.57;96138.03;1785288;79;21476;-73
2021/01/23 10:07:04;;;;;;;10.80;5.12;;;;;;;10.82;58.90;96121.50;1785360;80;21158;-73
2021/01/23 10:09:30;;;;;;;10.63;5.20;;;;;;;10.81;59.26;96123.42;1785336;79;21514;-73
2021/01/23 10:11:57;;;;;;;8.18;5.42;;;;;;;10.87;59.13;96115.91;1785217;80;22023;-73
2021/01/23 10:14:23;;;;;;;6.22;4.33;;;;;;;10.95;58.60;96121.84;1785176;79;21091;-73
2021/01/23 10:16:50;;;;;;;8.08;5.65;;;;;;;11.00;58.23;96133.83;1785286;80;21027;-73
2021/01/23 10:19:16;;;;;;;5.08;3.05;;;;;;;10.96;58.79;96132.91;1785299;79;21067;-73
2021/01/23 10:21:42;;;;;;;17.20;9.18;;;;;;;11.04;57.92;96136.70;1785188;80;21055;-73
2021/01/23 10:24:10;;;;;;;15.20;9.90;;;;;;;10.96;58.61;96128.28;1785218;79;21255;-73
2021/01/23 10:26:36;;;;;;;25.02;14.38;;;;;;;11.01;58.62;96128.08;1785149;80;21090;-73
2021/01/23 10:29:02;;;;;;;12.50;6.58;;;;;;;10.97;58.53;96127.16;1785307;79;21062;-73
2021/01/23 10:31:28;;;;;;;18.80;10.70;;;;;;;10.95;58.11;96124.55;1785224;80;21011;-73
2021/01/23 10:33:55;;;;;;;14.60;7.58;;;;;;;10.88;59.11;96122.35;1785342;79;21169;-73
2021/01/23 10:36:21;;;;;;;8.38;5.42;;;;;;;10.89;59.16;96125.85;1785201;80;21194;-73
2021/01/23 10:38:47;;;;;;;49.65;20.97;;;;;;;10.87;59.03;96113.99;1785152;79;21404;-73
2021/01/23 10:41:14;;;;;;;21.62;9.13;;;;;;;10.83;59.41;96128.50;1793710;79;21071;-73
2021/01/23 10:43:40;;;;;;;15.85;8.48;;;;;;;10.84;59.75;96126.82;1799806;78;21043;-73
2021/01/23 10:46:06;;;;;;;10.20;6.70;;;;;;;10.86;59.71;96136.00;1773097;79;21107;-74
2021/01/23 10:48:33;;;;;;;8.73;5.42;;;;;;;10.76;60.21;96141.20;1799749;78;21416;-74
2021/01/23 10:50:59;;;;;;;14.07;8.08;;;;;;;10.63;60.54;96136.25;1799671;79;21431;-74
2021/01/23 10:53:25;;;;;;;22.80;12.00;;;;;;;10.57;61.02;96134.05;1799798;78;21042;-74
2021/01/23 10:55:51;;;;;;;28.52;13.13;;;;;;;10.59;60.75;96133.15;1799722;79;21114;-74
2021/01/23 10:58:18;;;;;;;39.10;20.12;;;;;;;10.57;60.47;96140.81;1799761;78;21090;-73
2021/01/23 11:00:44;;;;;;;17.55;10.35;;;;;;;10.52;61.12;96149.92;1799693;79;21188;-73
2021/01/23 11:03:10;;;;;;;20.15;11.70;;;;;;;10.50;61.09;96141.87;1799655;78;21031;-73
2021/01/23 11:05:37;;;;;;;16.37;10.05;;;;;;;10.49;61.05;96138.93;1799781;79;21078;-74
2021/01/23 11:08:04;;;;;;;18.30;11.95;;;;;;;10.47;61.37;96137.11;1799823;78;21014;-73
2021/01/23 11:10:31;;;;;;;47.90;27.93;;;;;;;10.40;61.72;96134.90;1773122;79;21477;-74
2021/01/23 11:12:57;;;;;;;35.10;21.25;;;;;;;10.38;61.50;96141.20;1799722;78;22136;-74
2021/01/23 11:15:24;;;;;;;20.12;10.03;;;;;;;10.36;61.50;96144.23;1799740;79;21049;-73
2021/01/23 11:17:51;;;;;;;31.25;16.95;;;;;;;10.38;60.80;96136.58;1799741;78;21528;-73
2021/01/23 11:20:17;;;;;;;34.45;15.78;;;;;;;10.33;60.66;96132.69;1799670;79;21546;-73
2021/01/23 11:22:44;;;;;;;35.17;15.18;;;;;;;10.29;60.65;96128.25;1799739;78;21094;-73
2021/01/23 11:25:13;;;;;;;37.13;19.07;;;;;;;10.16;61.11;96121.31;1799716;79;21247;-73
2021/01/23 11:27:39;;;;;;;141.28;79.62;;;;;;;10.13;61.53;96120.62;1799761;78;21094;-73
2021/01/23 11:30:08;;;;;;;24.47;14.18;;;;;;;10.18;61.75;96110.98;1799699;79;21082;-74
2021/01/23 11:32:34;;;;;;;;;;;;;;;10.29;60.58;96097.91;1802389;78;21475;-74
2021/01/23 11:35:01;;;;;;;3.22;1.92;;;;;;;10.37;60.08;96097.66;1780845;80;20537;-73
2021/01/23 11:37:27;;;;;;;8.58;4.97;;;;;;;10.58;59.56;96102.56;1762272;81;21197;-73
2021/01/23 11:39:53;;;;;;;10.60;6.20;;;;;;;10.76;58.89;96101.13;1749809;81;21122;-73
2021/01/23 11:42:19;;;;;;;13.55;6.90;;;;;;;10.86;58.45;96092.09;1737017;82;21059;-74
2021/01/23 11:44:45;;;;;;;22.10;13.30;;;;;;;10.81;59.24;96099.03;1735814;82;21018;-73
2021/01/23 11:47:14;;;;;;;28.52;15.63;;;;;;;10.79;59.65;96101.84;1735840;82;21118;-74